sensor_id;sensor_type;location;lat;lon;timestamp;temperature;humidity
16287;DHT22;8251;53.568;10.018;2023-09-19T00:00:45;20.80;87.00
16287;DHT22;8251;53.568;10.018;2023-09-19T00:03:14;20.90;87.30
16287;DHT22;8251;53.568;10.018;2023-09-19T00:05:42;20.90;87.40
16287;DHT22;8251;53.568;10.018;2023-09-19T00:08:10;20.90;87.00
16287;DHT22;8251;53.568;10.018;2023-09-19T00:10:39;20.90;86.80
16287;DHT22;8251;53.568;10.018;2023-09-19T00:13:06;20.80;87.20
16287;DHT22;8251;53.568;10.018;2023-09-19T00:15:39;20.80;87.50
16287;DHT22;8251;53.568;10.018;2023-09-19T00:18:07;20.80;87.70
16287;DHT22;8251;53.568;10.018;2023-09-19T00:20:37;20.90;87.70
16287;DHT22;8251;53.568;10.018;2023-09-19T00:23:04;20.80;87.50
16287;DHT22;8251;53.568;10.018;2023-09-19T00:25:38;20.80;87.40
16287;DHT22;8251;53.568;10.018;2023-09-19T00:28:06;20.80;87.30
16287;DHT22;8251;53.568;10.018;2023-09-19T00:30:33;20.80;87.70
16287;DHT22;8251;53.568;10.018;2023-09-19T00:33:00;20.90;87.80
16287;DHT22;8251;53.568;10.018;2023-09-19T00:35:31;20.80;87.70
16287;DHT22;8251;53.568;10.018;2023-09-19T00:38:00;20.80;87.80
16287;DHT22;8251;53.568;10.018;2023-09-19T00:40:27;20.80;87.90
16287;DHT22;8251;53.568;10.018;2023-09-19T00:42:58;20.80;88.10
16287;DHT22;8251;53.568;10.018;2023-09-19T00:45:26;20.80;87.80
16287;DHT22;8251;53.568;10.018;2023-09-19T00:47:54;20.70;88.00
16287;DHT22;8251;53.568;10.018;2023-09-19T00:50:23;20.80;88.10
16287;DHT22;8251;53.568;10.018;2023-09-19T00:52:54;20.80;87.90
16287;DHT22;8251;53.568;10.018;2023-09-19T00:55:24;20.70;87.60
16287;DHT22;8251;53.568;10.018;2023-09-19T00:57:52;20.80;87.50
16287;DHT22;8251;53.568;10.018;2023-09-19T01:00:19;20.80;87.90
16287;DHT22;8251;53.568;10.018;2023-09-19T01:02:47;20.90;87.80
16287;DHT22;8251;53.568;10.018;2023-09-19T01:05:14;21.00;87.50
16287;DHT22;8251;53.568;10.018;2023-09-19T01:07:41;20.90;87.50
16287;DHT22;8251;53.568;10.018;2023-09-19T01:10:12;20.90;87.60
16287;DHT22;8251;53.568;10.018;2023-09-19T01:12:49;20.80;87.90
16287;DHT22;8251;53.568;10.018;2023-09-19T01:15:24;20.80;87.80
16287;DHT22;8251;53.568;10.018;2023-09-19T01:18:00;20.80;87.80
16287;DHT22;8251;53.568;10.018;2023-09-19T01:20:36;20.80;87.80
16287;DHT22;8251;53.568;10.018;2023-09-19T01:23:14;20.80;87.80
16287;DHT22;8251;53.568;10.018;2023-09-19T01:26:05;20.80;87.80
16287;DHT22;8251;53.568;10.018;2023-09-19T01:28:43;20.80;87.50
16287;DHT22;8251;53.568;10.018;2023-09-19T01:31:14;20.80;87.60
16287;DHT22;8251;53.568;10.018;2023-09-19T01:33:57;20.80;87.50
16287;DHT22;8251;53.568;10.018;2023-09-19T01:36:26;20.80;87.10
16287;DHT22;8251;53.568;10.018;2023-09-19T01:38:57;20.80;86.80
16287;DHT22;8251;53.568;10.018;2023-09-19T01:41:43;20.80;86.70
16287;DHT22;8251;53.568;10.018;2023-09-19T01:44:19;20.80;86.60
16287;DHT22;8251;53.568;10.018;2023-09-19T01:46:50;20.80;86.70
16287;DHT22;8251;53.568;10.018;2023-09-19T01:49:25;20.80;86.90
16287;DHT22;8251;53.568;10.018;2023-09-19T01:52:02;20.80;87.10
16287;DHT22;8251;53.568;10.018;2023-09-19T01:54:36;20.80;86.40
16287;DHT22;8251;53.568;10.018;2023-09-19T01:57:10;20.80;86.40
16287;DHT22;8251;53.568;10.018;2023-09-19T01:59:45;20.80;86.20
16287;DHT22;8251;53.568;10.018;2023-09-19T02:02:17;20.80;85.60
16287;DHT22;8251;53.568;10.018;2023-09-19T02:04:48;20.80;84.70
16287;DHT22;8251;53.568;10.018;2023-09-19T02:07:16;20.70;84.40
16287;DHT22;8251;53.568;10.018;2023-09-19T02:09:43;20.70;84.40
16287;DHT22;8251;53.568;10.018;2023-09-19T02:12:09;20.70;84.20
16287;DHT22;8251;53.568;10.018;2023-09-19T02:18:00;20.60;84.60
16287;DHT22;8251;53.568;10.018;2023-09-19T02:20:28;20.50;84.80
16287;DHT22;8251;53.568;10.018;2023-09-19T02:22:55;20.60;85.00
16287;DHT22;8251;53.568;10.018;2023-09-19T02:25:22;20.70;85.30
16287;DHT22;8251;53.568;10.018;2023-09-19T02:27:52;20.70;85.50
16287;DHT22;8251;53.568;10.018;2023-09-19T02:30:19;20.60;85.40
16287;DHT22;8251;53.568;10.018;2023-09-19T02:32:48;20.60;85.60
16287;DHT22;8251;53.568;10.018;2023-09-19T02:35:17;20.50;85.80
16287;DHT22;8251;53.568;10.018;2023-09-19T02:37:45;20.60;86.30
16287;DHT22;8251;53.568;10.018;2023-09-19T02:40:12;20.50;86.40
16287;DHT22;8251;53.568;10.018;2023-09-19T02:42:45;20.50;86.90
16287;DHT22;8251;53.568;10.018;2023-09-19T02:45:16;20.50;86.80
16287;DHT22;8251;53.568;10.018;2023-09-19T02:47:44;20.50;86.80
16287;DHT22;8251;53.568;10.018;2023-09-19T02:50:11;20.50;86.70
16287;DHT22;8251;53.568;10.018;2023-09-19T02:52:41;20.60;86.70
16287;DHT22;8251;53.568;10.018;2023-09-19T02:55:09;20.60;86.90
16287;DHT22;8251;53.568;10.018;2023-09-19T02:57:36;20.60;86.60
16287;DHT22;8251;53.568;10.018;2023-09-19T03:00:15;20.50;86.40
16287;DHT22;8251;53.568;10.018;2023-09-19T03:02:42;20.50;86.40
16287;DHT22;8251;53.568;10.018;2023-09-19T03:05:10;20.50;86.50
16287;DHT22;8251;53.568;10.018;2023-09-19T03:07:38;20.50;86.50
16287;DHT22;8251;53.568;10.018;2023-09-19T03:10:07;20.50;86.60
16287;DHT22;8251;53.568;10.018;2023-09-19T03:12:34;20.50;86.30
16287;DHT22;8251;53.568;10.018;2023-09-19T03:15:06;20.40;86.10
16287;DHT22;8251;53.568;10.018;2023-09-19T03:17:35;20.50;86.10
16287;DHT22;8251;53.568;10.018;2023-09-19T03:20:02;20.40;85.60
16287;DHT22;8251;53.568;10.018;2023-09-19T03:22:29;20.40;85.80
16287;DHT22;8251;53.568;10.018;2023-09-19T03:24:57;20.40;85.60
16287;DHT22;8251;53.568;10.018;2023-09-19T03:27:26;20.40;85.80
16287;DHT22;8251;53.568;10.018;2023-09-19T03:29:53;20.30;85.20
16287;DHT22;8251;53.568;10.018;2023-09-19T03:32:31;20.30;85.70
16287;DHT22;8251;53.568;10.018;2023-09-19T03:34:57;20.30;85.40
16287;DHT22;8251;53.568;10.018;2023-09-19T03:37:27;20.30;85.40
16287;DHT22;8251;53.568;10.018;2023-09-19T03:39:54;20.40;85.20
16287;DHT22;8251;53.568;10.018;2023-09-19T03:42:21;20.40;84.80
16287;DHT22;8251;53.568;10.018;2023-09-19T03:44:52;20.40;84.60
16287;DHT22;8251;53.568;10.018;2023-09-19T03:47:20;20.30;84.00
16287;DHT22;8251;53.568;10.018;2023-09-19T03:49:47;20.30;84.00
16287;DHT22;8251;53.568;10.018;2023-09-19T03:52:34;20.30;84.00
16287;DHT22;8251;53.568;10.018;2023-09-19T03:55:01;20.30;83.10
16287;DHT22;8251;53.568;10.018;2023-09-19T03:57:31;20.10;83.30
16287;DHT22;8251;53.568;10.018;2023-09-19T03:59:59;20.10;83.30
16287;DHT22;8251;53.568;10.018;2023-09-19T04:02:26;20.10;83.40
16287;DHT22;8251;53.568;10.018;2023-09-19T04:04:58;20.10;82.90
16287;DHT22;8251;53.568;10.018;2023-09-19T04:07:25;20.10;82.70
16287;DHT22;8251;53.568;10.018;2023-09-19T04:09:54;20.10;82.10
16287;DHT22;8251;53.568;10.018;2023-09-19T04:12:21;20.10;81.50
16287;DHT22;8251;53.568;10.018;2023-09-19T04:14:48;19.90;81.20
16287;DHT22;8251;53.568;10.018;2023-09-19T04:17:16;19.90;80.80
16287;DHT22;8251;53.568;10.018;2023-09-19T04:19:44;19.80;80.80
16287;DHT22;8251;53.568;10.018;2023-09-19T04:22:11;19.70;80.90
16287;DHT22;8251;53.568;10.018;2023-09-19T04:24:38;19.70;80.80
16287;DHT22;8251;53.568;10.018;2023-09-19T04:27:05;19.70;80.60
16287;DHT22;8251;53.568;10.018;2023-09-19T04:29:33;19.70;79.90
16287;DHT22;8251;53.568;10.018;2023-09-19T04:32:00;19.60;80.00
16287;DHT22;8251;53.568;10.018;2023-09-19T04:34:31;19.60;80.00
16287;DHT22;8251;53.568;10.018;2023-09-19T04:36:59;19.50;79.60
16287;DHT22;8251;53.568;10.018;2023-09-19T04:39:27;19.50;79.60
16287;DHT22;8251;53.568;10.018;2023-09-19T04:41:54;19.40;80.20
16287;DHT22;8251;53.568;10.018;2023-09-19T04:44:22;19.50;80.20
16287;DHT22;8251;53.568;10.018;2023-09-19T04:46:49;19.50;80.10
16287;DHT22;8251;53.568;10.018;2023-09-19T04:49:16;19.50;80.10
16287;DHT22;8251;53.568;10.018;2023-09-19T04:51:48;19.50;79.60
16287;DHT22;8251;53.568;10.018;2023-09-19T04:54:14;19.40;79.80
16287;DHT22;8251;53.568;10.018;2023-09-19T04:56:41;19.40;79.70
16287;DHT22;8251;53.568;10.018;2023-09-19T04:59:19;19.40;80.00
16287;DHT22;8251;53.568;10.018;2023-09-19T05:01:46;19.30;80.00
16287;DHT22;8251;53.568;10.018;2023-09-19T05:04:13;19.20;79.60
16287;DHT22;8251;53.568;10.018;2023-09-19T05:06:40;19.30;79.90
16287;DHT22;8251;53.568;10.018;2023-09-19T05:09:08;19.30;80.10
16287;DHT22;8251;53.568;10.018;2023-09-19T05:11:35;19.30;80.00
16287;DHT22;8251;53.568;10.018;2023-09-19T05:14:03;19.20;80.00
16287;DHT22;8251;53.568;10.018;2023-09-19T05:16:30;19.30;80.10
16287;DHT22;8251;53.568;10.018;2023-09-19T05:18:57;19.20;79.90
16287;DHT22;8251;53.568;10.018;2023-09-19T05:21:25;19.30;80.20
16287;DHT22;8251;53.568;10.018;2023-09-19T05:23:56;19.20;80.40
16287;DHT22;8251;53.568;10.018;2023-09-19T05:26:24;19.20;81.40
16287;DHT22;8251;53.568;10.018;2023-09-19T05:28:51;19.30;80.80
16287;DHT22;8251;53.568;10.018;2023-09-19T05:31:19;19.20;80.40
16287;DHT22;8251;53.568;10.018;2023-09-19T05:33:46;19.30;80.50
16287;DHT22;8251;53.568;10.018;2023-09-19T05:36:13;19.30;80.10
16287;DHT22;8251;53.568;10.018;2023-09-19T05:38:41;19.30;80.00
16287;DHT22;8251;53.568;10.018;2023-09-19T05:41:08;19.30;80.40
16287;DHT22;8251;53.568;10.018;2023-09-19T05:43:40;19.40;80.20
16287;DHT22;8251;53.568;10.018;2023-09-19T05:46:07;19.30;80.00
16287;DHT22;8251;53.568;10.018;2023-09-19T05:48:34;19.30;79.80
16287;DHT22;8251;53.568;10.018;2023-09-19T05:51:01;19.30;79.90
16287;DHT22;8251;53.568;10.018;2023-09-19T05:53:28;19.20;79.80
16287;DHT22;8251;53.568;10.018;2023-09-19T05:55:55;19.30;80.00
16287;DHT22;8251;53.568;10.018;2023-09-19T05:58:22;19.30;79.90
16287;DHT22;8251;53.568;10.018;2023-09-19T06:00:50;19.40;80.40
16287;DHT22;8251;53.568;10.018;2023-09-19T06:03:17;19.30;80.30
16287;DHT22;8251;53.568;10.018;2023-09-19T06:05:45;19.30;80.50
16287;DHT22;8251;53.568;10.018;2023-09-19T06:08:14;19.30;80.30
16287;DHT22;8251;53.568;10.018;2023-09-19T06:10:42;19.40;80.20
16287;DHT22;8251;53.568;10.018;2023-09-19T06:13:08;19.40;80.30
16287;DHT22;8251;53.568;10.018;2023-09-19T06:15:36;19.40;79.70
16287;DHT22;8251;53.568;10.018;2023-09-19T06:18:10;19.40;79.90
16287;DHT22;8251;53.568;10.018;2023-09-19T06:20:40;19.50;80.20
16287;DHT22;8251;53.568;10.018;2023-09-19T06:23:10;19.60;80.00
16287;DHT22;8251;53.568;10.018;2023-09-19T06:25:36;19.70;80.20
16287;DHT22;8251;53.568;10.018;2023-09-19T06:28:03;19.60;79.80
16287;DHT22;8251;53.568;10.018;2023-09-19T06:30:33;19.70;79.20
16287;DHT22;8251;53.568;10.018;2023-09-19T06:33:05;19.80;79.50
16287;DHT22;8251;53.568;10.018;2023-09-19T06:35:33;19.90;79.30
16287;DHT22;8251;53.568;10.018;2023-09-19T06:38:02;20.00;79.80
16287;DHT22;8251;53.568;10.018;2023-09-19T06:40:29;20.00;78.30
16287;DHT22;8251;53.568;10.018;2023-09-19T06:43:04;20.10;78.20
16287;DHT22;8251;53.568;10.018;2023-09-19T06:45:32;20.20;77.60
16287;DHT22;8251;53.568;10.018;2023-09-19T06:47:59;20.10;77.00
16287;DHT22;8251;53.568;10.018;2023-09-19T06:50:29;20.30;77.20
16287;DHT22;8251;53.568;10.018;2023-09-19T06:52:57;20.40;76.80
16287;DHT22;8251;53.568;10.018;2023-09-19T06:55:26;20.40;76.30
16287;DHT22;8251;53.568;10.018;2023-09-19T06:57:57;20.50;77.60
16287;DHT22;8251;53.568;10.018;2023-09-19T07:00:24;20.50;76.80
16287;DHT22;8251;53.568;10.018;2023-09-19T07:02:58;20.60;77.00
16287;DHT22;8251;53.568;10.018;2023-09-19T07:05:27;20.60;77.10
16287;DHT22;8251;53.568;10.018;2023-09-19T07:07:55;20.50;76.70
16287;DHT22;8251;53.568;10.018;2023-09-19T07:10:24;20.60;76.70
16287;DHT22;8251;53.568;10.018;2023-09-19T07:12:56;20.50;75.90
16287;DHT22;8251;53.568;10.018;2023-09-19T07:15:24;20.50;76.20
16287;DHT22;8251;53.568;10.018;2023-09-19T07:17:51;20.50;76.50
16287;DHT22;8251;53.568;10.018;2023-09-19T07:20:19;20.50;76.50
16287;DHT22;8251;53.568;10.018;2023-09-19T07:22:46;20.50;76.60
16287;DHT22;8251;53.568;10.018;2023-09-19T07:25:15;20.50;76.80
16287;DHT22;8251;53.568;10.018;2023-09-19T07:27:42;20.50;76.90
16287;DHT22;8251;53.568;10.018;2023-09-19T07:30:37;20.40;77.00
16287;DHT22;8251;53.568;10.018;2023-09-19T07:33:05;20.50;77.00
16287;DHT22;8251;53.568;10.018;2023-09-19T07:35:38;20.40;76.40
16287;DHT22;8251;53.568;10.018;2023-09-19T07:38:06;20.30;76.60
16287;DHT22;8251;53.568;10.018;2023-09-19T07:40:36;20.40;77.00
16287;DHT22;8251;53.568;10.018;2023-09-19T07:43:03;20.40;76.80
16287;DHT22;8251;53.568;10.018;2023-09-19T07:45:30;20.30;76.90
16287;DHT22;8251;53.568;10.018;2023-09-19T07:47:57;20.20;77.20
16287;DHT22;8251;53.568;10.018;2023-09-19T07:50:25;20.30;77.60
16287;DHT22;8251;53.568;10.018;2023-09-19T07:52:52;20.30;77.20
16287;DHT22;8251;53.568;10.018;2023-09-19T07:55:21;20.20;77.00
16287;DHT22;8251;53.568;10.018;2023-09-19T07:57:52;20.10;77.80
16287;DHT22;8251;53.568;10.018;2023-09-19T08:00:19;20.10;78.00
16287;DHT22;8251;53.568;10.018;2023-09-19T08:02:46;20.00;78.80
16287;DHT22;8251;53.568;10.018;2023-09-19T08:05:14;20.10;79.90
16287;DHT22;8251;53.568;10.018;2023-09-19T08:07:43;20.00;81.50
16287;DHT22;8251;53.568;10.018;2023-09-19T08:10:11;19.90;81.60
16287;DHT22;8251;53.568;10.018;2023-09-19T08:12:38;19.80;81.80
16287;DHT22;8251;53.568;10.018;2023-09-19T08:15:13;19.80;81.70
16287;DHT22;8251;53.568;10.018;2023-09-19T08:17:40;19.70;82.10
16287;DHT22;8251;53.568;10.018;2023-09-19T08:20:08;19.70;81.70
16287;DHT22;8251;53.568;10.018;2023-09-19T08:22:42;19.70;81.20
16287;DHT22;8251;53.568;10.018;2023-09-19T08:25:11;19.70;80.60
16287;DHT22;8251;53.568;10.018;2023-09-19T08:27:38;19.70;80.40
16287;DHT22;8251;53.568;10.018;2023-09-19T08:30:06;19.70;80.80
16287;DHT22;8251;53.568;10.018;2023-09-19T08:32:34;19.80;79.70
16287;DHT22;8251;53.568;10.018;2023-09-19T08:35:01;19.80;80.00
16287;DHT22;8251;53.568;10.018;2023-09-19T08:37:30;19.90;79.90
16287;DHT22;8251;53.568;10.018;2023-09-19T08:39:56;20.00;79.80
16287;DHT22;8251;53.568;10.018;2023-09-19T08:42:23;20.00;79.50
16287;DHT22;8251;53.568;10.018;2023-09-19T08:44:51;20.00;79.00
16287;DHT22;8251;53.568;10.018;2023-09-19T08:47:28;20.00;79.10
16287;DHT22;8251;53.568;10.018;2023-09-19T08:50:03;20.10;79.00
16287;DHT22;8251;53.568;10.018;2023-09-19T08:52:39;20.10;78.40
16287;DHT22;8251;53.568;10.018;2023-09-19T08:55:12;20.10;78.80
16287;DHT22;8251;53.568;10.018;2023-09-19T08:57:46;20.10;78.60
16287;DHT22;8251;53.568;10.018;2023-09-19T09:00:15;20.10;78.40
16287;DHT22;8251;53.568;10.018;2023-09-19T09:02:44;20.20;78.50
16287;DHT22;8251;53.568;10.018;2023-09-19T09:05:13;20.30;77.50
16287;DHT22;8251;53.568;10.018;2023-09-19T09:07:42;20.30;77.60
16287;DHT22;8251;53.568;10.018;2023-09-19T09:10:10;20.40;78.70
16287;DHT22;8251;53.568;10.018;2023-09-19T09:12:37;20.50;77.80
16287;DHT22;8251;53.568;10.018;2023-09-19T09:15:07;20.50;77.30
16287;DHT22;8251;53.568;10.018;2023-09-19T09:17:36;20.50;77.00
16287;DHT22;8251;53.568;10.018;2023-09-19T09:20:03;20.50;76.70
16287;DHT22;8251;53.568;10.018;2023-09-19T09:22:36;20.50;76.60
16287;DHT22;8251;53.568;10.018;2023-09-19T09:25:06;20.60;76.60
16287;DHT22;8251;53.568;10.018;2023-09-19T09:27:33;20.60;76.20
16287;DHT22;8251;53.568;10.018;2023-09-19T09:30:00;20.60;76.10
16287;DHT22;8251;53.568;10.018;2023-09-19T09:32:28;20.70;76.10
16287;DHT22;8251;53.568;10.018;2023-09-19T09:35:00;20.70;75.50
16287;DHT22;8251;53.568;10.018;2023-09-19T09:37:28;20.70;75.30
16287;DHT22;8251;53.568;10.018;2023-09-19T09:39:58;20.80;72.20
16287;DHT22;8251;53.568;10.018;2023-09-19T09:42:45;20.90;73.60
16287;DHT22;8251;53.568;10.018;2023-09-19T09:45:13;21.00;74.20
16287;DHT22;8251;53.568;10.018;2023-09-19T09:47:45;21.20;73.60
16287;DHT22;8251;53.568;10.018;2023-09-19T09:50:28;21.30;73.60
16287;DHT22;8251;53.568;10.018;2023-09-19T09:53:25;21.50;73.30
16287;DHT22;8251;53.568;10.018;2023-09-19T09:56:02;21.60;71.60
16287;DHT22;8251;53.568;10.018;2023-09-19T09:58:31;21.80;70.50
16287;DHT22;8251;53.568;10.018;2023-09-19T10:00:59;21.90;70.30
16287;DHT22;8251;53.568;10.018;2023-09-19T10:03:33;21.90;69.50
16287;DHT22;8251;53.568;10.018;2023-09-19T10:06:04;22.00;70.10
16287;DHT22;8251;53.568;10.018;2023-09-19T10:08:58;22.10;69.40
16287;DHT22;8251;53.568;10.018;2023-09-19T10:11:41;22.20;69.10
16287;DHT22;8251;53.568;10.018;2023-09-19T10:14:09;22.30;68.70
16287;DHT22;8251;53.568;10.018;2023-09-19T10:16:41;22.40;67.30
16287;DHT22;8251;53.568;10.018;2023-09-19T10:19:15;22.20;66.40
16287;DHT22;8251;53.568;10.018;2023-09-19T10:21:44;22.20;65.80
16287;DHT22;8251;53.568;10.018;2023-09-19T10:24:11;22.20;65.80
16287;DHT22;8251;53.568;10.018;2023-09-19T10:26:44;22.20;65.20
16287;DHT22;8251;53.568;10.018;2023-09-19T10:29:13;22.30;64.40
16287;DHT22;8251;53.568;10.018;2023-09-19T10:31:42;22.30;64.60
16287;DHT22;8251;53.568;10.018;2023-09-19T10:34:14;22.30;64.60
16287;DHT22;8251;53.568;10.018;2023-09-19T10:36:44;22.40;64.40
16287;DHT22;8251;53.568;10.018;2023-09-19T10:39:14;22.40;64.80
16287;DHT22;8251;53.568;10.018;2023-09-19T10:41:50;22.50;63.90
16287;DHT22;8251;53.568;10.018;2023-09-19T10:44:23;22.40;64.00
16287;DHT22;8251;53.568;10.018;2023-09-19T10:46:51;22.40;65.50
16287;DHT22;8251;53.568;10.018;2023-09-19T10:49:19;22.40;64.80
16287;DHT22;8251;53.568;10.018;2023-09-19T10:51:47;22.40;64.40
16287;DHT22;8251;53.568;10.018;2023-09-19T10:54:18;22.50;64.10
16287;DHT22;8251;53.568;10.018;2023-09-19T10:56:49;22.40;64.30
16287;DHT22;8251;53.568;10.018;2023-09-19T10:59:18;22.50;64.00
16287;DHT22;8251;53.568;10.018;2023-09-19T11:01:47;22.40;64.60
16287;DHT22;8251;53.568;10.018;2023-09-19T11:04:28;22.50;64.90
16287;DHT22;8251;53.568;10.018;2023-09-19T11:07:04;22.50;64.30
16287;DHT22;8251;53.568;10.018;2023-09-19T11:09:44;22.40;64.80
16287;DHT22;8251;53.568;10.018;2023-09-19T11:16:05;22.40;64.50
16287;DHT22;8251;53.568;10.018;2023-09-19T11:18:51;22.50;64.60
16287;DHT22;8251;53.568;10.018;2023-09-19T11:21:40;22.50;63.70
16287;DHT22;8251;53.568;10.018;2023-09-19T11:24:35;22.40;64.20
16287;DHT22;8251;53.568;10.018;2023-09-19T11:27:15;22.50;64.40
16287;DHT22;8251;53.568;10.018;2023-09-19T11:29:44;22.60;65.40
16287;DHT22;8251;53.568;10.018;2023-09-19T11:32:11;22.70;64.50
16287;DHT22;8251;53.568;10.018;2023-09-19T11:34:43;22.60;62.60
16287;DHT22;8251;53.568;10.018;2023-09-19T11:40:30;22.60;61.60
16287;DHT22;8251;53.568;10.018;2023-09-19T11:42:59;22.50;62.40
16287;DHT22;8251;53.568;10.018;2023-09-19T11:46:02;22.50;62.20
16287;DHT22;8251;53.568;10.018;2023-09-19T11:48:29;22.60;63.00
16287;DHT22;8251;53.568;10.018;2023-09-19T11:50:58;22.60;62.20
16287;DHT22;8251;53.568;10.018;2023-09-19T11:53:31;22.50;62.20
16287;DHT22;8251;53.568;10.018;2023-09-19T11:56:04;22.60;62.80
16287;DHT22;8251;53.568;10.018;2023-09-19T11:58:37;22.70;63.00
16287;DHT22;8251;53.568;10.018;2023-09-19T12:01:08;22.90;62.20
16287;DHT22;8251;53.568;10.018;2023-09-19T12:03:42;22.90;60.50
16287;DHT22;8251;53.568;10.018;2023-09-19T12:06:13;22.90;61.40
16287;DHT22;8251;53.568;10.018;2023-09-19T12:08:41;22.90;62.00
16287;DHT22;8251;53.568;10.018;2023-09-19T12:11:13;23.00;62.00
16287;DHT22;8251;53.568;10.018;2023-09-19T12:13:43;23.20;61.10
16287;DHT22;8251;53.568;10.018;2023-09-19T12:16:15;23.10;61.40
16287;DHT22;8251;53.568;10.018;2023-09-19T12:18:43;23.00;61.20
16287;DHT22;8251;53.568;10.018;2023-09-19T12:21:22;23.00;62.80
16287;DHT22;8251;53.568;10.018;2023-09-19T12:24:06;23.10;61.60
16287;DHT22;8251;53.568;10.018;2023-09-19T12:26:40;22.90;61.60
16287;DHT22;8251;53.568;10.018;2023-09-19T12:29:17;22.90;61.50
16287;DHT22;8251;53.568;10.018;2023-09-19T12:31:51;22.90;61.70
16287;DHT22;8251;53.568;10.018;2023-09-19T12:34:21;23.00;62.30
16287;DHT22;8251;53.568;10.018;2023-09-19T12:36:49;23.00;62.00
16287;DHT22;8251;53.568;10.018;2023-09-19T12:39:23;23.10;61.60
16287;DHT22;8251;53.568;10.018;2023-09-19T12:41:51;23.10;61.80
16287;DHT22;8251;53.568;10.018;2023-09-19T12:44:20;23.20;61.20
16287;DHT22;8251;53.568;10.018;2023-09-19T12:46:50;23.20;60.80
16287;DHT22;8251;53.568;10.018;2023-09-19T12:49:19;23.20;60.80
16287;DHT22;8251;53.568;10.018;2023-09-19T12:51:47;23.20;60.60
16287;DHT22;8251;53.568;10.018;2023-09-19T12:54:15;23.20;60.10
16287;DHT22;8251;53.568;10.018;2023-09-19T12:56:43;23.10;60.30
16287;DHT22;8251;53.568;10.018;2023-09-19T12:59:12;23.00;60.50
16287;DHT22;8251;53.568;10.018;2023-09-19T13:01:42;22.90;60.40
16287;DHT22;8251;53.568;10.018;2023-09-19T13:04:16;22.80;60.90
16287;DHT22;8251;53.568;10.018;2023-09-19T13:06:51;22.80;59.70
16287;DHT22;8251;53.568;10.018;2023-09-19T13:09:19;22.80;59.90
16287;DHT22;8251;53.568;10.018;2023-09-19T13:11:47;22.80;61.30
16287;DHT22;8251;53.568;10.018;2023-09-19T13:14:17;22.90;61.80
16287;DHT22;8251;53.568;10.018;2023-09-19T13:17:00;23.10;62.00
16287;DHT22;8251;53.568;10.018;2023-09-19T13:19:40;23.10;61.00
16287;DHT22;8251;53.568;10.018;2023-09-19T13:22:37;23.20;60.00
16287;DHT22;8251;53.568;10.018;2023-09-19T13:25:05;23.20;59.80
16287;DHT22;8251;53.568;10.018;2023-09-19T13:27:34;23.10;60.00
16287;DHT22;8251;53.568;10.018;2023-09-19T13:30:01;23.10;59.10
16287;DHT22;8251;53.568;10.018;2023-09-19T13:32:31;22.90;59.70
16287;DHT22;8251;53.568;10.018;2023-09-19T13:34:59;22.90;59.40
16287;DHT22;8251;53.568;10.018;2023-09-19T13:37:28;22.90;59.90
16287;DHT22;8251;53.568;10.018;2023-09-19T13:39:55;23.00;61.10
16287;DHT22;8251;53.568;10.018;2023-09-19T13:42:24;23.00;60.60
16287;DHT22;8251;53.568;10.018;2023-09-19T13:44:55;23.00;59.40
16287;DHT22;8251;53.568;10.018;2023-09-19T13:47:22;23.00;59.80
16287;DHT22;8251;53.568;10.018;2023-09-19T13:49:53;23.00;59.30
16287;DHT22;8251;53.568;10.018;2023-09-19T13:52:20;23.00;58.50
16287;DHT22;8251;53.568;10.018;2023-09-19T13:54:49;22.90;58.90
16287;DHT22;8251;53.568;10.018;2023-09-19T13:57:16;23.00;59.40
16287;DHT22;8251;53.568;10.018;2023-09-19T13:59:43;22.90;59.70
16287;DHT22;8251;53.568;10.018;2023-09-19T14:02:10;22.80;58.60
16287;DHT22;8251;53.568;10.018;2023-09-19T14:04:38;22.90;59.30
16287;DHT22;8251;53.568;10.018;2023-09-19T14:07:07;22.80;58.20
16287;DHT22;8251;53.568;10.018;2023-09-19T14:09:34;22.70;59.20
16287;DHT22;8251;53.568;10.018;2023-09-19T14:12:02;22.70;59.20
16287;DHT22;8251;53.568;10.018;2023-09-19T14:14:29;22.60;59.30
16287;DHT22;8251;53.568;10.018;2023-09-19T14:16:56;22.60;59.30
16287;DHT22;8251;53.568;10.018;2023-09-19T14:19:26;22.60;59.40
16287;DHT22;8251;53.568;10.018;2023-09-19T14:21:53;22.60;59.80
16287;DHT22;8251;53.568;10.018;2023-09-19T14:24:22;22.60;59.30
16287;DHT22;8251;53.568;10.018;2023-09-19T14:26:49;22.50;59.50
16287;DHT22;8251;53.568;10.018;2023-09-19T14:29:17;22.50;59.40
16287;DHT22;8251;53.568;10.018;2023-09-19T14:31:45;22.50;59.70
16287;DHT22;8251;53.568;10.018;2023-09-19T14:34:47;22.50;59.70
16287;DHT22;8251;53.568;10.018;2023-09-19T14:37:14;22.50;59.70
16287;DHT22;8251;53.568;10.018;2023-09-19T14:39:43;22.50;59.60
16287;DHT22;8251;53.568;10.018;2023-09-19T14:42:10;22.50;60.30
16287;DHT22;8251;53.568;10.018;2023-09-19T14:44:38;22.50;61.00
16287;DHT22;8251;53.568;10.018;2023-09-19T14:47:04;22.60;60.50
16287;DHT22;8251;53.568;10.018;2023-09-19T14:49:33;22.50;63.20
16287;DHT22;8251;53.568;10.018;2023-09-19T14:52:01;22.60;61.20
16287;DHT22;8251;53.568;10.018;2023-09-19T14:54:29;22.60;61.20
16287;DHT22;8251;53.568;10.018;2023-09-19T14:56:57;22.60;61.70
16287;DHT22;8251;53.568;10.018;2023-09-19T14:59:30;22.60;61.60
16287;DHT22;8251;53.568;10.018;2023-09-19T15:01:57;22.60;61.50
16287;DHT22;8251;53.568;10.018;2023-09-19T15:04:23;22.60;61.60
16287;DHT22;8251;53.568;10.018;2023-09-19T15:06:50;22.60;60.90
16287;DHT22;8251;53.568;10.018;2023-09-19T15:09:20;22.60;61.40
16287;DHT22;8251;53.568;10.018;2023-09-19T15:11:47;22.60;62.30
16287;DHT22;8251;53.568;10.018;2023-09-19T15:14:18;22.50;62.60
16287;DHT22;8251;53.568;10.018;2023-09-19T15:16:47;22.50;62.90
16287;DHT22;8251;53.568;10.018;2023-09-19T15:19:14;22.40;62.70
16287;DHT22;8251;53.568;10.018;2023-09-19T15:21:42;22.40;62.90
16287;DHT22;8251;53.568;10.018;2023-09-19T15:24:09;22.40;62.50
16287;DHT22;8251;53.568;10.018;2023-09-19T15:26:36;22.40;62.90
16287;DHT22;8251;53.568;10.018;2023-09-19T15:29:07;22.40;62.50
16287;DHT22;8251;53.568;10.018;2023-09-19T15:31:36;22.40;62.20
16287;DHT22;8251;53.568;10.018;2023-09-19T15:34:03;22.40;63.60
16287;DHT22;8251;53.568;10.018;2023-09-19T15:36:33;22.40;64.00
16287;DHT22;8251;53.568;10.018;2023-09-19T15:39:02;22.30;64.00
16287;DHT22;8251;53.568;10.018;2023-09-19T15:41:32;22.40;64.40
16287;DHT22;8251;53.568;10.018;2023-09-19T15:44:00;22.40;63.60
16287;DHT22;8251;53.568;10.018;2023-09-19T15:46:29;22.30;64.40
16287;DHT22;8251;53.568;10.018;2023-09-19T15:48:57;22.30;64.80
16287;DHT22;8251;53.568;10.018;2023-09-19T15:51:25;22.40;64.40
16287;DHT22;8251;53.568;10.018;2023-09-19T15:53:53;22.40;64.00
16287;DHT22;8251;53.568;10.018;2023-09-19T15:56:22;22.20;62.80
16287;DHT22;8251;53.568;10.018;2023-09-19T15:58:50;22.20;64.30